sensor_id;sensor_type;location;lat;lon;timestamp;temperature;humidity
2056;DHT22;1033;52.560;13.374;2022-10-16T00:00:14;15.40;99.90
2056;DHT22;1033;52.560;13.374;2022-10-16T00:02:43;15.40;99.90
2056;DHT22;1033;52.560;13.374;2022-10-16T00:05:17;15.40;99.90
2056;DHT22;1033;52.560;13.374;2022-10-16T00:07:46;15.50;99.90
2056;DHT22;1033;52.560;13.374;2022-10-16T00:10:16;15.60;99.90
2056;DHT22;1033;52.560;13.374;2022-10-16T00:12:45;15.70;99.90
2056;DHT22;1033;52.560;13.374;2022-10-16T00:15:16;15.80;99.90
2056;DHT22;1033;52.560;13.374;2022-10-16T00:17:44;15.80;99.90
2056;DHT22;1033;52.560;13.374;2022-10-16T00:20:13;15.90;99.90
2056;DHT22;1033;52.560;13.374;2022-10-16T00:22:42;15.80;99.90
2056;DHT22;1033;52.560;13.374;2022-10-16T00:25:11;15.80;99.90
2056;DHT22;1033;52.560;13.374;2022-10-16T00:27:42;15.70;99.90
2056;DHT22;1033;52.560;13.374;2022-10-16T00:30:11;15.80;99.90
2056;DHT22;1033;52.560;13.374;2022-10-16T00:32:40;15.90;99.90
2056;DHT22;1033;52.560;13.374;2022-10-16T00:35:08;15.90;99.90
2056;DHT22;1033;52.560;13.374;2022-10-16T00:37:37;15.80;99.90
2056;DHT22;1033;52.560;13.374;2022-10-16T00:40:07;15.90;99.90
2056;DHT22;1033;52.560;13.374;2022-10-16T00:42:37;15.90;99.90
2056;DHT22;1033;52.560;13.374;2022-10-16T00:45:09;15.80;99.90
2056;DHT22;1033;52.560;13.374;2022-10-16T00:47:42;15.80;99.90
2056;DHT22;1033;52.560;13.374;2022-10-16T00:50:21;15.70;99.90
2056;DHT22;1033;52.560;13.374;2022-10-16T00:52:55;15.70;99.90
2056;DHT22;1033;52.560;13.374;2022-10-16T00:55:25;15.70;99.90
2056;DHT22;1033;52.560;13.374;2022-10-16T00:57:57;15.70;99.90
2056;DHT22;1033;52.560;13.374;2022-10-16T01:00:28;15.80;99.90
2056;DHT22;1033;52.560;13.374;2022-10-16T01:02:58;15.80;99.90
2056;DHT22;1033;52.560;13.374;2022-10-16T01:05:35;15.80;99.90
2056;DHT22;1033;52.560;13.374;2022-10-16T01:08:15;15.80;99.90
2056;DHT22;1033;52.560;13.374;2022-10-16T01:10:57;15.80;99.90
2056;DHT22;1033;52.560;13.374;2022-10-16T01:13:33;15.70;99.90
2056;DHT22;1033;52.560;13.374;2022-10-16T01:16:12;15.70;99.90
2056;DHT22;1033;52.560;13.374;2022-10-16T01:18:47;15.80;99.90
2056;DHT22;1033;52.560;13.374;2022-10-16T01:21:26;15.70;99.90
2056;DHT22;1033;52.560;13.374;2022-10-16T01:24:04;15.70;99.90
2056;DHT22;1033;52.560;13.374;2022-10-16T01:27:03;15.80;99.90
2056;DHT22;1033;52.560;13.374;2022-10-16T01:29:41;15.70;99.90
2056;DHT22;1033;52.560;13.374;2022-10-16T01:32:20;15.70;99.90
2056;DHT22;1033;52.560;13.374;2022-10-16T01:35:00;15.70;99.90
2056;DHT22;1033;52.560;13.374;2022-10-16T01:37:36;15.80;99.90
2056;DHT22;1033;52.560;13.374;2022-10-16T01:40:11;15.90;99.90
2056;DHT22;1033;52.560;13.374;2022-10-16T01:42:48;15.80;99.90
2056;DHT22;1033;52.560;13.374;2022-10-16T01:45:21;15.80;99.90
2056;DHT22;1033;52.560;13.374;2022-10-16T01:47:51;15.80;99.90
2056;DHT22;1033;52.560;13.374;2022-10-16T01:50:21;15.80;99.90
2056;DHT22;1033;52.560;13.374;2022-10-16T01:52:52;15.80;99.90
2056;DHT22;1033;52.560;13.374;2022-10-16T01:55:29;15.80;99.90
2056;DHT22;1033;52.560;13.374;2022-10-16T01:58:06;15.80;99.90
2056;DHT22;1033;52.560;13.374;2022-10-16T02:00:39;15.70;99.90
2056;DHT22;1033;52.560;13.374;2022-10-16T02:03:13;15.70;99.90
2056;DHT22;1033;52.560;13.374;2022-10-16T02:05:46;15.60;99.90
2056;DHT22;1033;52.560;13.374;2022-10-16T02:08:20;15.60;99.90
2056;DHT22;1033;52.560;13.374;2022-10-16T02:10:51;15.70;99.90
2056;DHT22;1033;52.560;13.374;2022-10-16T02:13:24;15.80;99.90
2056;DHT22;1033;52.560;13.374;2022-10-16T02:15:58;15.80;99.90
2056;DHT22;1033;52.560;13.374;2022-10-16T02:18:27;15.80;99.90
2056;DHT22;1033;52.560;13.374;2022-10-16T02:21:00;15.80;99.90
2056;DHT22;1033;52.560;13.374;2022-10-16T02:23:43;15.80;99.90
2056;DHT22;1033;52.560;13.374;2022-10-16T02:26:25;15.80;99.90
2056;DHT22;1033;52.560;13.374;2022-10-16T02:29:03;15.80;99.90
2056;DHT22;1033;52.560;13.374;2022-10-16T02:31:41;15.80;99.90
2056;DHT22;1033;52.560;13.374;2022-10-16T02:34:16;15.80;99.90
2056;DHT22;1033;52.560;13.374;2022-10-16T02:36:49;15.80;99.90
2056;DHT22;1033;52.560;13.374;2022-10-16T02:39:20;15.80;99.90
2056;DHT22;1033;52.560;13.374;2022-10-16T02:41:50;15.90;99.90
2056;DHT22;1033;52.560;13.374;2022-10-16T02:44:20;15.90;99.90
2056;DHT22;1033;52.560;13.374;2022-10-16T02:46:49;15.80;99.90
2056;DHT22;1033;52.560;13.374;2022-10-16T02:49:17;15.80;99.90
2056;DHT22;1033;52.560;13.374;2022-10-16T02:51:46;15.80;99.90
2056;DHT22;1033;52.560;13.374;2022-10-16T02:54:15;15.80;99.90
2056;DHT22;1033;52.560;13.374;2022-10-16T02:56:43;15.80;99.90
2056;DHT22;1033;52.560;13.374;2022-10-16T02:59:12;15.80;99.90
2056;DHT22;1033;52.560;13.374;2022-10-16T03:01:42;15.70;99.90
2056;DHT22;1033;52.560;13.374;2022-10-16T03:04:11;15.60;99.90
2056;DHT22;1033;52.560;13.374;2022-10-16T03:06:40;15.60;99.90
2056;DHT22;1033;52.560;13.374;2022-10-16T03:09:08;15.50;99.90
2056;DHT22;1033;52.560;13.374;2022-10-16T03:11:37;15.40;99.90
2056;DHT22;1033;52.560;13.374;2022-10-16T03:14:06;15.40;99.90
2056;DHT22;1033;52.560;13.374;2022-10-16T03:16:35;15.30;99.90
2056;DHT22;1033;52.560;13.374;2022-10-16T03:19:05;15.20;99.90
2056;DHT22;1033;52.560;13.374;2022-10-16T03:21:33;15.10;99.90
2056;DHT22;1033;52.560;13.374;2022-10-16T03:24:03;15.00;99.90
2056;DHT22;1033;52.560;13.374;2022-10-16T03:26:32;15.00;99.90
2056;DHT22;1033;52.560;13.374;2022-10-16T03:29:01;14.90;99.90
2056;DHT22;1033;52.560;13.374;2022-10-16T03:31:30;14.80;99.90
2056;DHT22;1033;52.560;13.374;2022-10-16T03:33:59;14.70;99.90
2056;DHT22;1033;52.560;13.374;2022-10-16T03:36:34;14.70;99.90
2056;DHT22;1033;52.560;13.374;2022-10-16T03:39:03;14.70;99.90
2056;DHT22;1033;52.560;13.374;2022-10-16T03:41:31;14.60;99.90
2056;DHT22;1033;52.560;13.374;2022-10-16T03:44:00;14.70;99.90
2056;DHT22;1033;52.560;13.374;2022-10-16T03:46:29;14.70;99.90
2056;DHT22;1033;52.560;13.374;2022-10-16T03:48:57;14.70;99.90
2056;DHT22;1033;52.560;13.374;2022-10-16T03:51:26;14.60;99.90
2056;DHT22;1033;52.560;13.374;2022-10-16T03:53:56;14.60;99.90
2056;DHT22;1033;52.560;13.374;2022-10-16T03:56:25;14.70;99.90
2056;DHT22;1033;52.560;13.374;2022-10-16T03:58:54;14.70;99.90
2056;DHT22;1033;52.560;13.374;2022-10-16T04:01:23;14.70;99.90
2056;DHT22;1033;52.560;13.374;2022-10-16T04:03:52;14.70;99.90
2056;DHT22;1033;52.560;13.374;2022-10-16T04:06:21;14.70;99.90
2056;DHT22;1033;52.560;13.374;2022-10-16T04:08:50;14.70;99.90
2056;DHT22;1033;52.560;13.374;2022-10-16T04:11:20;14.70;99.90
2056;DHT22;1033;52.560;13.374;2022-10-16T04:13:49;14.90;99.90
2056;DHT22;1033;52.560;13.374;2022-10-16T04:16:17;14.90;99.90
2056;DHT22;1033;52.560;13.374;2022-10-16T04:18:46;14.80;99.90
2056;DHT22;1033;52.560;13.374;2022-10-16T04:21:15;14.90;99.90
2056;DHT22;1033;52.560;13.374;2022-10-16T04:23:44;14.90;99.90
2056;DHT22;1033;52.560;13.374;2022-10-16T04:26:12;14.90;99.90
2056;DHT22;1033;52.560;13.374;2022-10-16T04:28:42;14.80;99.90
2056;DHT22;1033;52.560;13.374;2022-10-16T04:31:11;14.70;99.90
2056;DHT22;1033;52.560;13.374;2022-10-16T04:33:42;14.70;99.90
2056;DHT22;1033;52.560;13.374;2022-10-16T04:36:11;14.70;99.90
2056;DHT22;1033;52.560;13.374;2022-10-16T04:38:40;14.70;99.90
2056;DHT22;1033;52.560;13.374;2022-10-16T04:41:09;14.70;99.90
2056;DHT22;1033;52.560;13.374;2022-10-16T04:43:37;14.70;99.90
2056;DHT22;1033;52.560;13.374;2022-10-16T04:46:08;14.70;99.90
2056;DHT22;1033;52.560;13.374;2022-10-16T04:48:37;14.70;99.90
2056;DHT22;1033;52.560;13.374;2022-10-16T04:51:06;14.60;99.90
2056;DHT22;1033;52.560;13.374;2022-10-16T04:53:35;14.50;99.90
2056;DHT22;1033;52.560;13.374;2022-10-16T04:56:04;14.50;99.90
2056;DHT22;1033;52.560;13.374;2022-10-16T04:58:33;14.40;99.90
2056;DHT22;1033;52.560;13.374;2022-10-16T05:01:02;14.30;99.90
2056;DHT22;1033;52.560;13.374;2022-10-16T05:03:32;14.30;99.90
2056;DHT22;1033;52.560;13.374;2022-10-16T05:06:00;14.30;99.90
2056;DHT22;1033;52.560;13.374;2022-10-16T05:08:31;14.30;99.90
2056;DHT22;1033;52.560;13.374;2022-10-16T05:11:02;14.40;99.90
2056;DHT22;1033;52.560;13.374;2022-10-16T05:13:31;14.40;99.90
2056;DHT22;1033;52.560;13.374;2022-10-16T05:16:01;14.30;99.90
2056;DHT22;1033;52.560;13.374;2022-10-16T05:18:31;14.30;99.90
2056;DHT22;1033;52.560;13.374;2022-10-16T05:21:00;14.20;99.90
2056;DHT22;1033;52.560;13.374;2022-10-16T05:23:29;14.20;99.90
2056;DHT22;1033;52.560;13.374;2022-10-16T05:25:59;14.20;99.90
2056;DHT22;1033;52.560;13.374;2022-10-16T05:28:29;14.20;99.90
2056;DHT22;1033;52.560;13.374;2022-10-16T05:30:58;14.30;99.90
2056;DHT22;1033;52.560;13.374;2022-10-16T05:33:28;14.30;99.90
2056;DHT22;1033;52.560;13.374;2022-10-16T05:36:01;14.30;99.90
2056;DHT22;1033;52.560;13.374;2022-10-16T05:38:30;14.30;99.90
2056;DHT22;1033;52.560;13.374;2022-10-16T05:40:59;14.40;99.90
2056;DHT22;1033;52.560;13.374;2022-10-16T05:43:28;14.50;99.90
2056;DHT22;1033;52.560;13.374;2022-10-16T05:45:59;14.60;99.90
2056;DHT22;1033;52.560;13.374;2022-10-16T05:48:30;14.70;99.90
2056;DHT22;1033;52.560;13.374;2022-10-16T05:51:03;14.70;99.90
2056;DHT22;1033;52.560;13.374;2022-10-16T05:53:35;14.70;99.90
2056;DHT22;1033;52.560;13.374;2022-10-16T05:56:06;14.80;99.90
2056;DHT22;1033;52.560;13.374;2022-10-16T05:58:37;14.80;99.90
2056;DHT22;1033;52.560;13.374;2022-10-16T06:01:10;14.90;99.90
2056;DHT22;1033;52.560;13.374;2022-10-16T06:03:40;15.00;99.90
2056;DHT22;1033;52.560;13.374;2022-10-16T06:06:12;15.00;99.90
2056;DHT22;1033;52.560;13.374;2022-10-16T06:08:43;15.10;99.90
2056;DHT22;1033;52.560;13.374;2022-10-16T06:11:17;15.10;99.90
2056;DHT22;1033;52.560;13.374;2022-10-16T06:13:50;15.10;99.90
2056;DHT22;1033;52.560;13.374;2022-10-16T06:16:19;15.20;99.90
2056;DHT22;1033;52.560;13.374;2022-10-16T06:18:50;15.20;99.90
2056;DHT22;1033;52.560;13.374;2022-10-16T06:21:22;15.20;99.90
2056;DHT22;1033;52.560;13.374;2022-10-16T06:23:53;15.20;99.90
2056;DHT22;1033;52.560;13.374;2022-10-16T06:26:25;15.20;99.90
2056;DHT22;1033;52.560;13.374;2022-10-16T06:28:55;15.40;99.90
2056;DHT22;1033;52.560;13.374;2022-10-16T06:31:26;15.40;99.90
2056;DHT22;1033;52.560;13.374;2022-10-16T06:33:58;15.40;99.90
2056;DHT22;1033;52.560;13.374;2022-10-16T06:36:29;15.40;99.90
2056;DHT22;1033;52.560;13.374;2022-10-16T06:38:57;15.40;99.90
2056;DHT22;1033;52.560;13.374;2022-10-16T06:41:26;15.40;99.90
2056;DHT22;1033;52.560;13.374;2022-10-16T13:37:17;15.50;99.90
2056;DHT22;1033;52.560;13.374;2022-10-16T13:39:47;20.10;34.20
2056;DHT22;1033;52.560;13.374;2022-10-16T13:42:24;19.90;34.50
2056;DHT22;1033;52.560;13.374;2022-10-16T14:04:21;19.70;36.70
2056;DHT22;1033;52.560;13.374;2022-10-16T14:15:00;20.00;31.50
2056;DHT22;1033;52.560;13.374;2022-10-16T14:16:32;20.10;29.80
2056;DHT22;1033;52.560;13.374;2022-10-16T14:19:04;20.10;29.20
2056;DHT22;1033;52.560;13.374;2022-10-16T14:21:36;20.20;28.40
2056;DHT22;1033;52.560;13.374;2022-10-16T14:24:12;20.20;28.30
2056;DHT22;1033;52.560;13.374;2022-10-16T14:26:42;20.20;27.90
2056;DHT22;1033;52.560;13.374;2022-10-16T14:29:19;20.10;28.30
2056;DHT22;1033;52.560;13.374;2022-10-16T14:31:55;20.20;27.80
2056;DHT22;1033;52.560;13.374;2022-10-16T14:34:29;20.00;27.50
2056;DHT22;1033;52.560;13.374;2022-10-16T14:37:02;20.00;27.40
2056;DHT22;1033;52.560;13.374;2022-10-16T14:39:54;20.00;27.30
2056;DHT22;1033;52.560;13.374;2022-10-16T14:42:25;19.90;26.80
2056;DHT22;1033;52.560;13.374;2022-10-16T14:44:54;19.90;27.20
2056;DHT22;1033;52.560;13.374;2022-10-16T14:47:26;20.00;27.10
2056;DHT22;1033;52.560;13.374;2022-10-16T14:49:57;20.00;27.30
2056;DHT22;1033;52.560;13.374;2022-10-16T14:52:26;20.00;26.80
2056;DHT22;1033;52.560;13.374;2022-10-16T14:54:56;19.90;25.70
2056;DHT22;1033;52.560;13.374;2022-10-16T14:57:27;19.90;25.70
2056;DHT22;1033;52.560;13.374;2022-10-16T15:00:02;19.80;24.90
2056;DHT22;1033;52.560;13.374;2022-10-16T15:02:33;19.80;24.80
2056;DHT22;1033;52.560;13.374;2022-10-16T15:05:13;19.70;24.10
2056;DHT22;1033;52.560;13.374;2022-10-16T15:07:45;19.60;23.80
2056;DHT22;1033;52.560;13.374;2022-10-16T15:10:15;19.60;23.80
2056;DHT22;1033;52.560;13.374;2022-10-16T15:12:45;19.50;23.70
2056;DHT22;1033;52.560;13.374;2022-10-16T15:15:25;19.50;24.30
2056;DHT22;1033;52.560;13.374;2022-10-16T15:18:00;19.40;24.10
2056;DHT22;1033;52.560;13.374;2022-10-16T15:20:32;19.40;24.40
2056;DHT22;1033;52.560;13.374;2022-10-16T15:23:04;19.30;24.60
2056;DHT22;1033;52.560;13.374;2022-10-16T15:25:39;19.30;24.20
2056;DHT22;1033;52.560;13.374;2022-10-16T15:28:12;19.10;23.40
2056;DHT22;1033;52.560;13.374;2022-10-16T15:30:42;19.00;23.40
2056;DHT22;1033;52.560;13.374;2022-10-16T15:33:14;18.90;23.80
2056;DHT22;1033;52.560;13.374;2022-10-16T15:35:48;18.80;23.50
2056;DHT22;1033;52.560;13.374;2022-10-16T15:38:18;18.70;23.80
2056;DHT22;1033;52.560;13.374;2022-10-16T15:40:49;18.70;23.90
2056;DHT22;1033;52.560;13.374;2022-10-16T15:43:18;18.60;24.30
2056;DHT22;1033;52.560;13.374;2022-10-16T15:45:58;18.50;25.10
2056;DHT22;1033;52.560;13.374;2022-10-16T15:48:28;18.30;24.80
2056;DHT22;1033;52.560;13.374;2022-10-16T15:50:59;18.20;26.00
2056;DHT22;1033;52.560;13.374;2022-10-16T15:53:28;18.10;26.50
2056;DHT22;1033;52.560;13.374;2022-10-16T15:55:57;18.00;27.70
2056;DHT22;1033;52.560;13.374;2022-10-16T15:58:27;17.80;28.20
2056;DHT22;1033;52.560;13.374;2022-10-16T16:00:57;17.70;29.20
2056;DHT22;1033;52.560;13.374;2022-10-16T16:03:29;17.50;30.10
2056;DHT22;1033;52.560;13.374;2022-10-16T16:06:04;17.30;31.70
2056;DHT22;1033;52.560;13.374;2022-10-16T16:08:34;17.20;34.70
2056;DHT22;1033;52.560;13.374;2022-10-16T16:11:04;17.10;35.80
2056;DHT22;1033;52.560;13.374;2022-10-16T16:13:34;17.00;37.90
2056;DHT22;1033;52.560;13.374;2022-10-16T16:16:06;16.90;39.20
2056;DHT22;1033;52.560;13.374;2022-10-16T16:18:35;16.70;42.10
2056;DHT22;1033;52.560;13.374;2022-10-16T16:21:07;16.60;44.50
2056;DHT22;1033;52.560;13.374;2022-10-16T16:23:37;16.50;46.60
2056;DHT22;1033;52.560;13.374;2022-10-16T16:26:09;16.50;50.20
2056;DHT22;1033;52.560;13.374;2022-10-16T16:28:40;16.50;51.00
2056;DHT22;1033;52.560;13.374;2022-10-16T16:31:10;16.30;51.50
2056;DHT22;1033;52.560;13.374;2022-10-16T16:33:39;16.30;54.20
2056;DHT22;1033;52.560;13.374;2022-10-16T16:36:09;16.10;57.10
2056;DHT22;1033;52.560;13.374;2022-10-16T16:38:42;16.10;60.00
2056;DHT22;1033;52.560;13.374;2022-10-16T16:41:11;16.00;59.90
2056;DHT22;1033;52.560;13.374;2022-10-16T16:43:41;16.00;63.70
2056;DHT22;1033;52.560;13.374;2022-10-16T16:46:10;15.90;65.80
2056;DHT22;1033;52.560;13.374;2022-10-16T16:48:39;15.80;82.30
2056;DHT22;1033;52.560;13.374;2022-10-16T16:51:11;15.80;77.50
2056;DHT22;1033;52.560;13.374;2022-10-16T16:53:43;15.80;81.60
2056;DHT22;1033;52.560;13.374;2022-10-16T16:56:13;15.70;80.40
2056;DHT22;1033;52.560;13.374;2022-10-16T16:58:45;15.60;80.70
2056;DHT22;1033;52.560;13.374;2022-10-16T17:01:14;15.60;84.20
2056;DHT22;1033;52.560;13.374;2022-10-16T17:03:47;15.60;87.10
2056;DHT22;1033;52.560;13.374;2022-10-16T17:06:21;15.50;86.60
2056;DHT22;1033;52.560;13.374;2022-10-16T17:08:51;15.40;90.50
2056;DHT22;1033;52.560;13.374;2022-10-16T17:11:22;15.30;88.80
2056;DHT22;1033;52.560;13.374;2022-10-16T17:13:54;15.20;91.90
2056;DHT22;1033;52.560;13.374;2022-10-16T17:16:27;15.10;93.80
2056;DHT22;1033;52.560;13.374;2022-10-16T17:18:59;15.10;94.90
2056;DHT22;1033;52.560;13.374;2022-10-16T17:21:30;15.00;96.40
2056;DHT22;1033;52.560;13.374;2022-10-16T17:24:00;15.00;98.00
2056;DHT22;1033;52.560;13.374;2022-10-16T17:26:29;14.90;98.80
2056;DHT22;1033;52.560;13.374;2022-10-16T17:29:00;14.80;99.90
2056;DHT22;1033;52.560;13.374;2022-10-16T17:31:31;14.70;99.90
2056;DHT22;1033;52.560;13.374;2022-10-16T17:34:02;14.70;99.90
2056;DHT22;1033;52.560;13.374;2022-10-16T17:36:35;14.60;99.90
2056;DHT22;1033;52.560;13.374;2022-10-16T17:39:16;14.60;99.90
2056;DHT22;1033;52.560;13.374;2022-10-16T17:41:46;14.60;99.90
2056;DHT22;1033;52.560;13.374;2022-10-16T17:44:16;14.50;99.90
2056;DHT22;1033;52.560;13.374;2022-10-16T17:46:49;14.40;99.90
2056;DHT22;1033;52.560;13.374;2022-10-16T17:49:20;14.30;99.90
2056;DHT22;1033;52.560;13.374;2022-10-16T17:51:55;14.30;99.90
2056;DHT22;1033;52.560;13.374;2022-10-16T17:54:25;14.20;99.90
2056;DHT22;1033;52.560;13.374;2022-10-16T17:56:53;14.10;99.90
2056;DHT22;1033;52.560;13.374;2022-10-16T17:59:22;14.10;99.90
2056;DHT22;1033;52.560;13.374;2022-10-16T18:01:51;14.10;99.90
2056;DHT22;1033;52.560;13.374;2022-10-16T18:04:19;14.00;99.90
2056;DHT22;1033;52.560;13.374;2022-10-16T18:06:48;14.00;99.90
2056;DHT22;1033;52.560;13.374;2022-10-16T18:09:19;13.90;99.90
2056;DHT22;1033;52.560;13.374;2022-10-16T18:11:48;13.80;99.90
2056;DHT22;1033;52.560;13.374;2022-10-16T18:14:21;13.70;99.90
2056;DHT22;1033;52.560;13.374;2022-10-16T18:16:50;13.60;99.90
2056;DHT22;1033;52.560;13.374;2022-10-16T18:19:19;13.60;99.90
2056;DHT22;1033;52.560;13.374;2022-10-16T18:21:48;13.50;99.90
2056;DHT22;1033;52.560;13.374;2022-10-16T18:24:19;13.50;99.90
2056;DHT22;1033;52.560;13.374;2022-10-16T18:26:50;13.40;99.90
2056;DHT22;1033;52.560;13.374;2022-10-16T18:29:23;13.40;99.90
2056;DHT22;1033;52.560;13.374;2022-10-16T18:31:52;13.40;99.90
2056;DHT22;1033;52.560;13.374;2022-10-16T18:34:22;13.40;99.90
2056;DHT22;1033;52.560;13.374;2022-10-16T18:36:53;13.30;99.90
2056;DHT22;1033;52.560;13.374;2022-10-16T18:39:24;13.30;99.90
2056;DHT22;1033;52.560;13.374;2022-10-16T18:41:53;13.20;99.90
2056;DHT22;1033;52.560;13.374;2022-10-16T18:44:26;13.20;99.90
2056;DHT22;1033;52.560;13.374;2022-10-16T18:46:57;13.10;99.90
2056;DHT22;1033;52.560;13.374;2022-10-16T18:49:26;13.00;99.90
2056;DHT22;1033;52.560;13.374;2022-10-16T18:51:55;13.00;99.90
2056;DHT22;1033;52.560;13.374;2022-10-16T18:54:26;12.90;99.90
2056;DHT22;1033;52.560;13.374;2022-10-16T18:56:54;12.90;99.90
2056;DHT22;1033;52.560;13.374;2022-10-16T18:59:23;12.80;99.90
2056;DHT22;1033;52.560;13.374;2022-10-16T19:01:53;12.80;99.90
2056;DHT22;1033;52.560;13.374;2022-10-16T19:04:22;12.80;99.90
2056;DHT22;1033;52.560;13.374;2022-10-16T19:06:52;12.80;1.00
2056;DHT22;1033;52.560;13.374;2022-10-16T19:09:22;12.80;1.00
2056;DHT22;1033;52.560;13.374;2022-10-16T19:11:53;13.00;99.90
2056;DHT22;1033;52.560;13.374;2022-10-16T19:14:23;13.10;99.90
2056;DHT22;1033;52.560;13.374;2022-10-16T19:16:51;13.30;99.90
2056;DHT22;1033;52.560;13.374;2022-10-16T19:19:20;13.50;99.90
2056;DHT22;1033;52.560;13.374;2022-10-16T19:21:50;13.60;99.90
2056;DHT22;1033;52.560;13.374;2022-10-16T19:24:27;13.70;99.90
2056;DHT22;1033;52.560;13.374;2022-10-16T19:26:57;13.70;99.90
2056;DHT22;1033;52.560;13.374;2022-10-16T19:29:26;13.60;99.90
2056;DHT22;1033;52.560;13.374;2022-10-16T19:31:57;13.60;99.90
2056;DHT22;1033;52.560;13.374;2022-10-16T19:34:33;13.50;99.90
2056;DHT22;1033;52.560;13.374;2022-10-16T19:37:02;13.40;99.90
2056;DHT22;1033;52.560;13.374;2022-10-16T19:39:31;13.40;99.90
2056;DHT22;1033;52.560;13.374;2022-10-16T19:42:02;13.30;99.90
2056;DHT22;1033;52.560;13.374;2022-10-16T19:44:31;13.40;99.90
2056;DHT22;1033;52.560;13.374;2022-10-16T19:47:00;13.40;99.90
2056;DHT22;1033;52.560;13.374;2022-10-16T19:49:29;13.40;99.90
2056;DHT22;1033;52.560;13.374;2022-10-16T19:51:58;13.40;99.90
2056;DHT22;1033;52.560;13.374;2022-10-16T19:54:26;13.40;99.90
2056;DHT22;1033;52.560;13.374;2022-10-16T19:56:55;13.30;99.90
2056;DHT22;1033;52.560;13.374;2022-10-16T19:59:27;13.30;99.90
2056;DHT22;1033;52.560;13.374;2022-10-16T20:01:56;13.40;99.90
2056;DHT22;1033;52.560;13.374;2022-10-16T20:04:25;13.40;99.90
2056;DHT22;1033;52.560;13.374;2022-10-16T20:06:54;13.30;99.90
2056;DHT22;1033;52.560;13.374;2022-10-16T20:09:22;13.30;99.90
2056;DHT22;1033;52.560;13.374;2022-10-16T20:11:51;13.40;99.90
2056;DHT22;1033;52.560;13.374;2022-10-16T20:14:20;13.40;99.90
2056;DHT22;1033;52.560;13.374;2022-10-16T20:16:50;13.40;99.90
2056;DHT22;1033;52.560;13.374;2022-10-16T20:19:20;13.30;99.90
2056;DHT22;1033;52.560;13.374;2022-10-16T20:21:49;13.20;99.90
2056;DHT22;1033;52.560;13.374;2022-10-16T20:24:18;13.10;99.90
2056;DHT22;1033;52.560;13.374;2022-10-16T20:26:47;13.10;99.90
2056;DHT22;1033;52.560;13.374;2022-10-16T20:29:16;13.00;99.90
2056;DHT22;1033;52.560;13.374;2022-10-16T20:31:45;13.00;99.90
2056;DHT22;1033;52.560;13.374;2022-10-16T20:34:15;13.00;99.90
2056;DHT22;1033;52.560;13.374;2022-10-16T20:36:44;13.00;99.90
2056;DHT22;1033;52.560;13.374;2022-10-16T20:39:12;12.90;99.90
2056;DHT22;1033;52.560;13.374;2022-10-16T20:41:41;12.90;99.90
2056;DHT22;1033;52.560;13.374;2022-10-16T20:44:10;12.90;99.90
2056;DHT22;1033;52.560;13.374;2022-10-16T20:46:39;12.90;99.90
2056;DHT22;1033;52.560;13.374;2022-10-16T20:49:07;12.90;99.90
2056;DHT22;1033;52.560;13.374;2022-10-16T20:51:55;12.90;99.90
2056;DHT22;1033;52.560;13.374;2022-10-16T20:54:24;13.00;99.90
2056;DHT22;1033;52.560;13.374;2022-10-16T20:56:52;13.00;99.90
2056;DHT22;1033;52.560;13.374;2022-10-16T20:59:21;13.10;99.90
2056;DHT22;1033;52.560;13.374;2022-10-16T21:01:52;13.20;99.90
2056;DHT22;1033;52.560;13.374;2022-10-16T21:04:21;13.20;99.90
2056;DHT22;1033;52.560;13.374;2022-10-16T21:06:50;13.20;99.90
2056;DHT22;1033;52.560;13.374;2022-10-16T21:09:20;13.40;99.90
2056;DHT22;1033;52.560;13.374;2022-10-16T21:11:49;13.30;99.90
2056;DHT22;1033;52.560;13.374;2022-10-16T21:14:17;13.30;99.90
2056;DHT22;1033;52.560;13.374;2022-10-16T21:16:46;13.30;99.90
2056;DHT22;1033;52.560;13.374;2022-10-16T21:19:15;13.20;99.90
2056;DHT22;1033;52.560;13.374;2022-10-16T21:21:45;13.30;99.90
2056;DHT22;1033;52.560;13.374;2022-10-16T21:24:23;13.40;99.90
2056;DHT22;1033;52.560;13.374;2022-10-16T21:26:52;13.40;99.90
2056;DHT22;1033;52.560;13.374;2022-10-16T21:29:20;13.40;99.90
2056;DHT22;1033;52.560;13.374;2022-10-16T21:31:49;13.40;99.90
2056;DHT22;1033;52.560;13.374;2022-10-16T21:34:18;13.40;99.90
2056;DHT22;1033;52.560;13.374;2022-10-16T21:36:46;13.40;99.90
2056;DHT22;1033;52.560;13.374;2022-10-16T21:39:18;13.40;99.90
2056;DHT22;1033;52.560;13.374;2022-10-16T21:41:49;13.40;99.90
2056;DHT22;1033;52.560;13.374;2022-10-16T21:44:18;13.50;99.90
2056;DHT22;1033;52.560;13.374;2022-10-16T21:46:47;13.50;99.90
2056;DHT22;1033;52.560;13.374;2022-10-16T21:49:18;13.60;99.90
2056;DHT22;1033;52.560;13.374;2022-10-16T21:51:48;13.60;99.90
2056;DHT22;1033;52.560;13.374;2022-10-16T21:54:19;13.60;99.90
2056;DHT22;1033;52.560;13.374;2022-10-16T21:56:50;13.80;99.90
2056;DHT22;1033;52.560;13.374;2022-10-16T21:59:20;13.80;99.90
2056;DHT22;1033;52.560;13.374;2022-10-16T22:01:51;13.80;99.90
2056;DHT22;1033;52.560;13.374;2022-10-16T22:04:20;13.70;99.90
2056;DHT22;1033;52.560;13.374;2022-10-16T22:06:49;13.70;99.90
2056;DHT22;1033;52.560;13.374;2022-10-16T22:09:18;13.60;99.90
2056;DHT22;1033;52.560;13.374;2022-10-16T22:11:47;13.50;99.90
2056;DHT22;1033;52.560;13.374;2022-10-16T22:14:19;13.50;99.90
2056;DHT22;1033;52.560;13.374;2022-10-16T22:16:48;13.40;99.90
2056;DHT22;1033;52.560;13.374;2022-10-16T22:19:19;13.40;99.90
2056;DHT22;1033;52.560;13.374;2022-10-16T22:21:49;13.30;99.90
2056;DHT22;1033;52.560;13.374;2022-10-16T22:24:23;13.30;99.90
2056;DHT22;1033;52.560;13.374;2022-10-16T22:26:52;13.30;99.90
2056;DHT22;1033;52.560;13.374;2022-10-16T22:29:22;13.20;99.90
2056;DHT22;1033;52.560;13.374;2022-10-16T22:31:51;13.20;99.90
2056;DHT22;1033;52.560;13.374;2022-10-16T22:34:20;13.10;99.90
2056;DHT22;1033;52.560;13.374;2022-10-16T22:36:49;13.00;99.90
2056;DHT22;1033;52.560;13.374;2022-10-16T22:39:18;13.00;99.90
2056;DHT22;1033;52.560;13.374;2022-10-16T22:41:46;13.00;99.90
2056;DHT22;1033;52.560;13.374;2022-10-16T22:44:15;12.90;99.90
2056;DHT22;1033;52.560;13.374;2022-10-16T22:46:45;12.80;99.90
2056;DHT22;1033;52.560;13.374;2022-10-16T22:49:14;12.80;99.90
2056;DHT22;1033;52.560;13.374;2022-10-16T22:51:44;12.70;99.90
2056;DHT22;1033;52.560;13.374;2022-10-16T22:54:13;12.60;1.00
2056;DHT22;1033;52.560;13.374;2022-10-16T22:56:42;12.60;1.00
2056;DHT22;1033;52.560;13.374;2022-10-16T22:59:11;12.60;1.00
2056;DHT22;1033;52.560;13.374;2022-10-16T23:01:40;12.70;1.00
2056;DHT22;1033;52.560;13.374;2022-10-16T23:04:11;12.80;1.00
2056;DHT22;1033;52.560;13.374;2022-10-16T23:09:09;12.90;1.00
2056;DHT22;1033;52.560;13.374;2022-10-16T23:11:38;12.90;1.00
